createdAt,value
2018-05-31T00:01:56.596Z,18.70
2018-05-31T00:04:26.717Z,18.70
2018-05-31T00:06:56.118Z,18.70
2018-05-31T00:09:25.407Z,18.70
2018-05-31T00:11:54.825Z,18.70
2018-05-31T00:14:24.945Z,18.60
2018-05-31T00:16:54.303Z,18.60
2018-05-31T00:19:23.594Z,18.60
2018-05-31T00:21:52.899Z,18.60
2018-05-31T00:24:22.252Z,18.60
2018-05-31T00:26:52.373Z,18.60
2018-05-31T00:29:21.781Z,18.60
2018-05-31T00:31:51.179Z,18.60
2018-05-31T00:34:21.299Z,18.60
2018-05-31T00:36:51.365Z,18.60
2018-05-31T00:39:20.722Z,18.60
2018-05-31T00:41:50.842Z,18.60
2018-05-31T00:44:20.950Z,18.60
2018-05-31T00:46:50.364Z,18.50
2018-05-31T00:49:20.490Z,18.50
2018-05-31T00:51:49.892Z,18.60
2018-05-31T00:54:20.011Z,18.50
2018-05-31T00:56:50.136Z,18.50
2018-05-31T00:59:19.477Z,18.50
2018-05-31T01:01:48.782Z,18.50
2018-05-31T01:04:18.138Z,18.40
2018-05-31T01:06:48.207Z,18.30
2018-05-31T01:09:17.559Z,18.30
2018-05-31T01:11:47.670Z,18.10
2018-05-31T01:14:17.801Z,18.10
2018-05-31T01:16:47.862Z,18.00
2018-05-31T01:19:17.224Z,18.00
2018-05-31T01:21:47.334Z,18.00
2018-05-31T01:24:17.463Z,18.00
2018-05-31T01:26:47.583Z,18.00
2018-05-31T01:29:17.704Z,18.10
2018-05-31T01:31:47.821Z,18.10
2018-05-31T01:34:17.937Z,18.20
2018-05-31T01:36:48.065Z,18.30
2018-05-31T01:39:19.210Z,18.40
2018-05-31T01:41:49.279Z,18.50
2018-05-31T01:44:18.632Z,18.40
2018-05-31T01:46:48.037Z,18.50
2018-05-31T01:49:17.439Z,18.60
2018-05-31T01:51:47.507Z,18.70
2018-05-31T01:54:16.860Z,18.70
2018-05-31T01:56:46.981Z,18.70
2018-05-31T01:59:17.421Z,18.60
2018-05-31T02:01:47.938Z,18.70
2018-05-31T02:04:18.048Z,18.70
2018-05-31T02:06:47.461Z,18.70
2018-05-31T02:09:16.865Z,18.70
2018-05-31T02:11:46.987Z,18.60
2018-05-31T02:14:17.108Z,18.60
2018-05-31T02:16:47.225Z,18.50
2018-05-31T02:19:17.348Z,18.50
2018-05-31T02:21:47.456Z,18.40
2018-05-31T02:24:16.871Z,18.40
2018-05-31T02:26:46.992Z,18.30
2018-05-31T02:29:17.111Z,18.40
2018-05-31T02:31:46.515Z,18.40
2018-05-31T02:34:16.633Z,18.40
2018-05-31T02:36:46.755Z,18.40
2018-05-31T02:39:16.867Z,18.40
2018-05-31T02:41:47.103Z,18.30
2018-05-31T02:44:17.221Z,18.30
2018-05-31T02:46:47.337Z,18.20
2018-05-31T02:49:17.460Z,18.20
2018-05-31T02:51:47.582Z,18.10
2018-05-31T02:54:17.701Z,18.10
2018-05-31T02:56:47.821Z,18.00
2018-05-31T02:59:17.943Z,17.90
2018-05-31T03:01:48.054Z,17.80
2018-05-31T03:04:17.467Z,17.80
2018-05-31T03:06:47.589Z,17.70
2018-05-31T03:09:16.991Z,17.70
2018-05-31T03:11:47.141Z,17.70
2018-05-31T03:14:16.516Z,17.70
2018-05-31T03:16:46.636Z,17.70
2018-05-31T03:19:16.712Z,17.80
2018-05-31T03:21:46.053Z,17.70
2018-05-31T03:24:15.357Z,17.80
2018-05-31T03:26:45.479Z,18.00
2018-05-31T03:29:15.601Z,18.00
2018-05-31T03:31:45.720Z,18.10
2018-05-31T03:34:15.784Z,18.10
2018-05-31T03:36:45.089Z,18.10
2018-05-31T03:39:14.443Z,18.10
2018-05-31T03:41:44.521Z,18.10
2018-05-31T03:44:13.867Z,18.10
2018-05-31T03:46:43.989Z,18.20
2018-05-31T03:49:13.287Z,18.20
2018-05-31T03:51:43.350Z,18.30
2018-05-31T03:54:12.706Z,18.40
2018-05-31T03:56:42.828Z,18.50
2018-05-31T03:59:12.937Z,18.60
2018-05-31T04:01:42.353Z,18.60
2018-05-31T04:04:12.464Z,18.80
2018-05-31T04:06:42.593Z,18.80
2018-05-31T04:09:13.023Z,18.80
2018-05-31T04:11:43.141Z,18.80
2018-05-31T04:14:13.254Z,18.90
2018-05-31T04:16:43.383Z,18.80
2018-05-31T04:19:13.501Z,18.90
2018-05-31T04:21:43.565Z,18.90
2018-05-31T04:24:12.923Z,18.80
2018-05-31T04:26:43.032Z,18.90
2018-05-31T04:29:13.724Z,18.90
2018-05-31T04:31:43.081Z,18.80
2018-05-31T04:34:13.201Z,18.90
2018-05-31T04:36:43.320Z,18.90
2018-05-31T04:39:13.435Z,18.90
2018-05-31T04:41:43.552Z,18.80
2018-05-31T04:44:13.683Z,18.80
2018-05-31T04:46:43.084Z,18.80
2018-05-31T04:49:13.195Z,18.70
2018-05-31T04:51:42.612Z,18.70
2018-05-31T04:54:12.730Z,18.80
2018-05-31T04:56:42.796Z,18.80
2018-05-31T04:59:12.152Z,18.80
2018-05-31T05:01:42.273Z,18.80
2018-05-31T05:04:12.497Z,18.80
2018-05-31T05:06:42.614Z,18.90
2018-05-31T05:09:12.021Z,18.90
2018-05-31T05:11:42.143Z,19.00
2018-05-31T05:14:11.543Z,19.00
2018-05-31T05:16:41.668Z,19.10
2018-05-31T05:19:11.786Z,19.20
2018-05-31T05:21:41.903Z,19.30
2018-05-31T05:24:12.023Z,19.30
2018-05-31T05:26:42.145Z,19.40
2018-05-31T05:29:12.268Z,19.40
2018-05-31T05:31:41.669Z,19.40
2018-05-31T05:34:11.790Z,19.50
2018-05-31T05:36:42.015Z,19.60
2018-05-31T05:39:11.417Z,19.60
2018-05-31T05:41:41.536Z,19.80
2018-05-31T05:44:11.656Z,19.90
2018-05-31T05:46:41.002Z,19.90
2018-05-31T05:49:10.361Z,19.90
2018-05-31T05:51:40.425Z,20.10
2018-05-31T05:54:09.777Z,20.10
2018-05-31T05:56:39.068Z,20.20
2018-05-31T05:59:08.386Z,20.20
2018-05-31T06:01:38.506Z,20.20
2018-05-31T06:04:08.614Z,20.30
2018-05-31T06:06:38.030Z,20.20
2018-05-31T06:09:08.151Z,20.40
2018-05-31T06:11:38.278Z,20.40
2018-05-31T06:14:07.676Z,20.40
2018-05-31T06:16:37.744Z,20.60
2018-05-31T06:19:07.095Z,20.50
2018-05-31T06:21:37.223Z,20.70
2018-05-31T06:24:07.340Z,20.80
2018-05-31T06:26:37.459Z,20.90
2018-05-31T06:29:07.569Z,20.90
2018-05-31T06:31:37.686Z,21.00
2018-05-31T06:34:07.898Z,21.10
2018-05-31T06:36:37.325Z,21.00
2018-05-31T06:39:06.830Z,21.20
2018-05-31T06:41:36.270Z,21.20
2018-05-31T06:44:05.740Z,21.40
2018-05-31T06:46:35.148Z,21.50
2018-05-31T06:49:04.548Z,21.60
2018-05-31T06:51:33.910Z,21.70
2018-05-31T06:54:03.251Z,21.80
2018-05-31T06:56:32.641Z,21.90
2018-05-31T06:59:01.959Z,22.00
2018-05-31T07:01:31.361Z,22.10
2018-05-31T07:04:00.763Z,22.20
2018-05-31T07:06:30.065Z,22.30
2018-05-31T07:08:59.469Z,22.50
2018-05-31T07:11:28.770Z,22.60
2018-05-31T07:13:58.016Z,22.70
2018-05-31T07:16:27.374Z,22.80
2018-05-31T07:18:57.483Z,23.00
2018-05-31T07:21:26.897Z,23.00
2018-05-31T07:23:56.199Z,23.00
2018-05-31T07:26:25.502Z,23.10
2018-05-31T07:28:55.621Z,23.30
2018-05-31T07:31:24.922Z,23.30
2018-05-31T07:33:54.226Z,23.30
2018-05-31T07:36:23.626Z,23.40
2018-05-31T07:38:52.937Z,23.40
2018-05-31T07:41:23.050Z,23.60
2018-05-31T07:43:52.341Z,23.60
2018-05-31T07:46:21.758Z,23.70
2018-05-31T07:48:51.873Z,23.80
2018-05-31T07:51:21.333Z,23.70
2018-05-31T07:53:50.682Z,23.80
2018-05-31T07:56:20.084Z,23.90
2018-05-31T07:58:49.487Z,24.00
2018-05-31T08:01:19.609Z,24.10
2018-05-31T08:03:49.728Z,24.30
2018-05-31T08:06:19.133Z,24.20
2018-05-31T08:08:48.478Z,24.40
2018-05-31T08:11:17.867Z,24.50
2018-05-31T08:13:47.244Z,24.60
2018-05-31T08:16:17.360Z,24.80
2018-05-31T08:18:46.765Z,24.70
2018-05-31T08:21:16.066Z,24.90
2018-05-31T08:23:45.367Z,24.90
2018-05-31T08:26:15.488Z,25.00
2018-05-31T08:28:44.896Z,25.00
2018-05-31T08:31:15.016Z,25.20
2018-05-31T08:33:45.132Z,25.20
2018-05-31T08:36:14.536Z,25.20
2018-05-31T08:38:44.655Z,25.30
2018-05-31T08:41:14.053Z,25.30
2018-05-31T08:43:43.361Z,25.40
2018-05-31T08:46:12.763Z,25.50
2018-05-31T08:48:42.066Z,25.70
2018-05-31T08:51:11.368Z,25.80
2018-05-31T08:53:40.714Z,26.00
2018-05-31T08:56:10.072Z,26.10
2018-05-31T08:58:39.462Z,26.20
2018-05-31T09:01:08.879Z,26.20
2018-05-31T09:03:38.285Z,26.30
2018-05-31T09:06:07.534Z,26.40
2018-05-31T09:08:36.876Z,26.50
2018-05-31T09:11:06.187Z,26.60
2018-05-31T09:13:36.310Z,26.80
2018-05-31T09:16:06.432Z,26.90
2018-05-31T09:18:36.494Z,27.00
2018-05-31T09:21:05.849Z,27.00
2018-05-31T09:23:35.097Z,27.10
2018-05-31T09:26:04.411Z,27.30
2018-05-31T09:28:33.767Z,27.30
2018-05-31T09:31:03.154Z,27.30
2018-05-31T09:33:33.278Z,27.60
2018-05-31T09:36:03.342Z,27.70
2018-05-31T09:38:32.698Z,27.70
2018-05-31T09:41:02.793Z,27.90
2018-05-31T09:43:32.123Z,27.90
2018-05-31T09:46:02.241Z,28.10
2018-05-31T09:48:32.360Z,28.20
2018-05-31T09:51:02.482Z,28.30
2018-05-31T09:53:31.884Z,28.30
2018-05-31T09:56:01.187Z,28.40
2018-05-31T09:58:31.305Z,28.60
2018-05-31T10:01:00.608Z,28.60
2018-05-31T10:03:30.011Z,28.80
2018-05-31T10:06:00.131Z,29.20
2018-05-31T10:08:29.535Z,29.10
2018-05-31T10:11:00.372Z,29.10
2018-05-31T10:13:30.486Z,29.00
2018-05-31T10:15:59.801Z,29.00
2018-05-31T10:18:29.914Z,29.10
2018-05-31T10:21:00.039Z,29.20
2018-05-31T10:23:29.344Z,29.20
2018-05-31T10:25:58.743Z,29.40
2018-05-31T10:28:28.860Z,29.60
2018-05-31T10:30:58.980Z,29.70
2018-05-31T10:33:28.384Z,29.70
2018-05-31T10:35:58.506Z,29.80
2018-05-31T10:38:27.871Z,29.80
2018-05-31T10:40:57.210Z,29.90
2018-05-31T10:43:26.509Z,29.90
2018-05-31T10:45:57.343Z,29.60
2018-05-31T10:48:28.185Z,29.60
2018-05-31T10:50:57.575Z,29.60
2018-05-31T10:53:26.839Z,29.70
2018-05-31T10:55:56.133Z,29.70
2018-05-31T10:58:25.499Z,29.70
2018-05-31T11:00:55.612Z,29.70
2018-05-31T11:03:25.679Z,29.70
2018-05-31T11:05:55.019Z,29.70
2018-05-31T11:08:24.435Z,29.80
2018-05-31T11:10:53.726Z,29.90
2018-05-31T11:13:23.041Z,30.00
2018-05-31T11:15:52.445Z,30.10
2018-05-31T11:18:21.849Z,30.20
2018-05-31T11:20:51.150Z,30.20
2018-05-31T11:23:21.255Z,30.30
2018-05-31T11:25:50.571Z,30.30
2018-05-31T11:28:20.693Z,30.20
2018-05-31T11:30:50.918Z,30.20
2018-05-31T11:33:20.320Z,30.20
2018-05-31T11:35:49.721Z,30.30
2018-05-31T11:38:19.686Z,30.40
2018-05-31T11:40:49.040Z,30.50
2018-05-31T11:43:19.880Z,30.60
2018-05-31T11:45:49.224Z,30.60
2018-05-31T11:48:18.480Z,30.60
2018-05-31T11:50:48.605Z,30.80
2018-05-31T11:53:17.903Z,30.80
2018-05-31T11:55:47.306Z,30.90
2018-05-31T11:58:16.553Z,31.00
2018-05-31T12:00:45.908Z,31.00
2018-05-31T12:03:15.311Z,31.10
2018-05-31T12:05:44.602Z,31.00
2018-05-31T12:08:13.966Z,30.80
2018-05-31T12:10:43.323Z,30.70
2018-05-31T12:13:13.422Z,30.50
2018-05-31T12:15:42.739Z,30.50
2018-05-31T12:18:12.806Z,30.70
2018-05-31T12:20:42.147Z,30.60
2018-05-31T12:23:11.463Z,30.80
2018-05-31T12:25:40.867Z,30.60
2018-05-31T12:28:10.167Z,30.40
2018-05-31T12:30:39.459Z,30.20
2018-05-31T12:33:08.774Z,30.00
2018-05-31T12:35:38.889Z,30.20
2018-05-31T12:38:08.181Z,30.20
2018-05-31T12:40:37.495Z,30.30
2018-05-31T12:43:07.662Z,30.50
2018-05-31T12:45:37.015Z,30.50
2018-05-31T12:48:07.136Z,30.80
2018-05-31T12:50:36.438Z,30.80
2018-05-31T12:53:05.885Z,30.90
2018-05-31T12:55:35.189Z,30.90
2018-05-31T12:58:04.533Z,31.10
2018-05-31T13:00:33.847Z,31.20
2018-05-31T13:03:03.246Z,31.30
2018-05-31T13:05:32.540Z,31.30
2018-05-31T13:08:01.847Z,31.30
2018-05-31T13:10:31.154Z,31.30
2018-05-31T13:13:00.454Z,31.30
2018-05-31T13:15:29.800Z,31.20
2018-05-31T13:17:59.160Z,31.10
2018-05-31T13:20:28.551Z,31.10
2018-05-31T13:22:57.865Z,31.20
2018-05-31T13:25:27.166Z,31.30
2018-05-31T13:27:56.473Z,31.30
2018-05-31T13:30:25.869Z,31.20
2018-05-31T13:32:55.173Z,31.20
2018-05-31T13:35:24.473Z,31.10
2018-05-31T13:37:53.775Z,31.10
2018-05-31T13:40:23.074Z,31.10
2018-05-31T13:42:52.370Z,31.30
2018-05-31T13:45:23.213Z,31.30
2018-05-31T13:47:52.601Z,31.20
2018-05-31T13:50:21.920Z,31.10
2018-05-31T13:52:51.220Z,30.80
2018-05-31T13:55:20.521Z,30.50
2018-05-31T13:57:50.585Z,30.20
2018-05-31T14:00:19.932Z,30.10
2018-05-31T14:02:49.249Z,30.10
2018-05-31T14:05:19.365Z,30.10
2018-05-31T14:07:48.768Z,30.10
2018-05-31T14:10:18.894Z,29.80
2018-05-31T14:12:49.009Z,29.60
2018-05-31T14:15:18.416Z,29.60
2018-05-31T14:17:47.819Z,29.40
2018-05-31T14:20:17.222Z,29.30
2018-05-31T14:22:47.341Z,29.40
2018-05-31T14:25:18.164Z,29.40
2018-05-31T14:27:47.493Z,29.40
2018-05-31T14:30:17.600Z,29.50
2018-05-31T14:32:46.888Z,29.50
2018-05-31T14:35:16.260Z,29.50
2018-05-31T14:37:45.595Z,29.40
2018-05-31T14:40:15.009Z,29.20
2018-05-31T14:42:44.311Z,29.00
2018-05-31T14:45:13.717Z,28.80
2018-05-31T14:47:43.834Z,28.30
2018-05-31T14:50:13.238Z,28.30
2018-05-31T14:52:42.539Z,28.10
2018-05-31T14:55:13.376Z,27.80
2018-05-31T14:57:43.438Z,27.80
2018-05-31T15:00:12.798Z,27.70
2018-05-31T15:02:42.917Z,27.70
2018-05-31T15:05:12.218Z,27.70
2018-05-31T15:07:41.623Z,27.70
2018-05-31T15:10:10.924Z,27.70
2018-05-31T15:12:40.226Z,27.60
2018-05-31T15:15:09.531Z,27.60
2018-05-31T15:17:39.649Z,27.50
2018-05-31T15:20:09.056Z,27.50
2018-05-31T15:22:39.172Z,27.30
2018-05-31T15:25:08.575Z,27.30
2018-05-31T15:27:37.979Z,27.20
2018-05-31T15:30:07.377Z,27.10
2018-05-31T15:32:36.684Z,27.00
2018-05-31T15:35:06.088Z,26.90
2018-05-31T15:37:36.207Z,26.80
2018-05-31T15:40:05.615Z,26.80
2018-05-31T15:42:35.937Z,26.70
2018-05-31T15:45:06.046Z,26.60
2018-05-31T15:47:35.362Z,26.60
2018-05-31T15:50:04.753Z,26.60
2018-05-31T15:52:34.105Z,26.60
2018-05-31T15:55:04.388Z,26.50
2018-05-31T15:57:33.689Z,26.50
2018-05-31T16:00:03.093Z,26.50
2018-05-31T16:02:32.382Z,26.40
2018-05-31T16:05:01.798Z,26.30
2018-05-31T16:07:31.102Z,26.30
2018-05-31T16:10:00.503Z,26.20
2018-05-31T16:12:29.795Z,26.20
2018-05-31T16:14:59.211Z,26.10
2018-05-31T16:17:29.326Z,25.90
2018-05-31T16:19:58.988Z,25.90
2018-05-31T16:22:28.441Z,25.80
2018-05-31T16:24:57.748Z,25.70
2018-05-31T16:27:27.352Z,25.70
2018-05-31T16:29:56.756Z,25.70
2018-05-31T16:32:26.160Z,25.50
2018-05-31T16:34:55.464Z,25.30
2018-05-31T16:37:25.588Z,25.20
2018-05-31T16:39:55.692Z,25.20
2018-05-31T16:42:25.009Z,25.10
2018-05-31T16:44:55.126Z,25.10
2018-05-31T16:47:25.245Z,25.10
2018-05-31T16:49:54.549Z,25.10
2018-05-31T16:52:23.950Z,25.00
2018-05-31T16:54:53.238Z,25.00
2018-05-31T16:57:22.652Z,25.00
2018-05-31T16:59:52.769Z,24.90
2018-05-31T17:02:22.177Z,25.00
2018-05-31T17:04:51.583Z,25.00
2018-05-31T17:07:21.702Z,25.00
2018-05-31T17:09:51.011Z,25.00
2018-05-31T17:12:21.226Z,24.90
2018-05-31T17:14:50.646Z,24.90
2018-05-31T17:17:20.032Z,24.80
2018-05-31T17:19:49.435Z,24.80
2018-05-31T17:22:18.738Z,24.70
2018-05-31T17:24:48.039Z,24.70
2018-05-31T17:27:17.343Z,24.60
2018-05-31T17:29:47.460Z,24.60
2018-05-31T17:32:16.760Z,24.50
2018-05-31T17:34:46.882Z,24.40
2018-05-31T17:37:17.002Z,24.20
2018-05-31T17:39:46.411Z,24.20
2018-05-31T17:42:16.526Z,23.70
2018-05-31T17:44:46.603Z,23.40
2018-05-31T17:47:15.948Z,23.40
2018-05-31T17:49:45.249Z,23.30
2018-05-31T17:52:14.550Z,23.20
2018-05-31T17:54:43.853Z,23.10
2018-05-31T17:57:13.153Z,23.00
2018-05-31T17:59:42.505Z,23.00
2018-05-31T18:02:11.857Z,23.00
2018-05-31T18:04:41.152Z,22.90
2018-05-31T18:07:10.444Z,22.90
2018-05-31T18:09:39.760Z,22.90
2018-05-31T18:12:09.062Z,22.90
2018-05-31T18:14:38.370Z,22.90
2018-05-31T18:17:08.482Z,22.80
2018-05-31T18:19:37.773Z,22.80
2018-05-31T18:22:07.085Z,22.80
2018-05-31T18:24:36.479Z,22.80
2018-05-31T18:27:05.893Z,22.80
2018-05-31T18:29:35.241Z,22.70
2018-05-31T18:32:04.597Z,22.70
2018-05-31T18:34:33.892Z,22.60
2018-05-31T18:37:03.303Z,22.50
2018-05-31T18:39:33.423Z,22.20
2018-05-31T18:42:02.826Z,22.20
2018-05-31T18:44:32.134Z,22.10
2018-05-31T18:47:02.248Z,21.90
2018-05-31T18:49:31.653Z,21.90
2018-05-31T18:52:01.057Z,22.00
2018-05-31T18:54:30.443Z,22.00
2018-05-31T18:56:59.860Z,22.10
2018-05-31T18:59:29.286Z,22.00
2018-05-31T19:01:59.390Z,22.00
2018-05-31T19:04:28.681Z,22.00
2018-05-31T19:06:58.152Z,22.00
2018-05-31T19:09:33.026Z,22.00
2018-05-31T19:12:02.327Z,21.80
2018-05-31T19:14:32.652Z,21.60
2018-05-31T19:17:02.063Z,21.60
2018-05-31T19:19:37.676Z,21.60
2018-05-31T19:22:07.109Z,21.60
2018-05-31T19:24:42.043Z,21.70
2018-05-31T19:27:11.444Z,21.70
2018-05-31T19:29:40.849Z,21.70
2018-05-31T19:32:10.288Z,21.70
2018-05-31T19:34:39.670Z,21.60
2018-05-31T19:37:13.658Z,21.50
2018-05-31T19:39:42.987Z,21.50
2018-05-31T19:42:17.973Z,21.40
2018-05-31T19:44:47.303Z,21.30
2018-05-31T19:47:16.596Z,21.30
2018-05-31T19:49:46.013Z,21.30
2018-05-31T19:52:20.887Z,21.30
2018-05-31T19:54:50.250Z,21.20
2018-05-31T19:57:20.367Z,21.20
2018-05-31T20:02:54.999Z,21.10
2018-05-31T20:05:24.315Z,21.10
2018-05-31T20:07:53.616Z,21.10
2018-05-31T20:10:23.020Z,21.10
2018-05-31T20:12:57.237Z,21.00
2018-05-31T20:15:26.627Z,21.00
2018-05-31T20:17:56.043Z,21.00
2018-05-31T20:20:25.452Z,20.90
2018-05-31T20:22:54.850Z,20.90
2018-05-31T20:25:24.139Z,20.80
2018-05-31T20:27:53.453Z,20.80
2018-05-31T20:30:22.959Z,20.70
2018-05-31T20:32:53.084Z,20.70
2018-05-31T20:35:23.202Z,20.70
2018-05-31T20:37:52.440Z,20.70
2018-05-31T20:40:21.803Z,20.70
2018-05-31T20:42:51.206Z,20.70
2018-05-31T20:45:20.489Z,20.80
2018-05-31T20:47:49.815Z,20.80
2018-05-31T20:50:19.928Z,20.70
2018-05-31T20:52:49.339Z,20.70
2018-05-31T20:55:19.454Z,20.60
2018-05-31T20:57:48.855Z,20.60
2018-05-31T21:00:18.160Z,20.60
2018-05-31T21:02:47.563Z,20.50
2018-05-31T21:05:16.864Z,20.60
2018-05-31T21:07:46.163Z,20.60
2018-05-31T21:10:15.567Z,20.50
2018-05-31T21:12:44.868Z,20.50
2018-05-31T21:15:14.170Z,20.50
2018-05-31T21:17:43.463Z,20.40
2018-05-31T21:20:12.758Z,20.40
2018-05-31T21:22:42.078Z,20.30
2018-05-31T21:25:12.195Z,20.20
2018-05-31T21:27:41.598Z,20.20
2018-05-31T21:30:11.719Z,20.10
2018-05-31T21:32:41.123Z,20.10
2018-05-31T21:35:10.427Z,20.10
2018-05-31T21:37:39.829Z,20.10
2018-05-31T21:40:09.888Z,20.00
2018-05-31T21:42:39.250Z,20.00
2018-05-31T21:45:09.363Z,20.00
2018-05-31T21:47:38.676Z,20.00
2018-05-31T21:50:08.738Z,19.90
2018-05-31T21:52:38.104Z,19.90
2018-05-31T21:55:07.497Z,19.90
2018-05-31T21:57:37.719Z,19.90
2018-05-31T22:00:07.225Z,19.90
2018-05-31T22:02:36.632Z,19.90
2018-05-31T22:05:06.035Z,19.90
2018-05-31T22:07:35.332Z,19.80
2018-05-31T22:10:04.688Z,19.80
2018-05-31T22:12:34.082Z,19.70
2018-05-31T22:15:03.441Z,19.60
2018-05-31T22:17:32.844Z,19.60
2018-05-31T22:20:03.072Z,19.60
2018-05-31T22:22:33.134Z,19.60
2018-05-31T22:25:02.486Z,19.60
2018-05-31T22:27:31.878Z,19.60
2018-05-31T22:30:01.194Z,19.60
2018-05-31T22:32:30.484Z,19.60
2018-05-31T22:34:59.902Z,19.60
2018-05-31T22:37:29.199Z,19.60
2018-05-31T22:39:58.501Z,19.60
2018-05-31T22:42:27.801Z,19.50
2018-05-31T22:44:57.208Z,19.50
2018-05-31T22:47:27.326Z,19.30
2018-05-31T22:49:56.718Z,19.20
2018-05-31T22:52:26.032Z,19.20
2018-05-31T22:54:55.436Z,19.10
2018-05-31T22:57:24.736Z,19.00
2018-05-31T22:59:54.032Z,19.00
2018-05-31T23:02:23.344Z,19.00
2018-05-31T23:04:53.459Z,18.90
2018-05-31T23:07:22.760Z,18.90
2018-05-31T23:09:52.884Z,18.80
2018-05-31T23:12:22.282Z,18.80
2018-05-31T23:14:53.122Z,18.80
2018-05-31T23:17:22.523Z,18.80
2018-05-31T23:19:51.929Z,18.80
2018-05-31T23:22:22.049Z,18.70
2018-05-31T23:24:51.452Z,18.70
2018-05-31T23:27:21.675Z,18.70
2018-05-31T23:29:51.793Z,18.60
2018-05-31T23:32:21.202Z,18.60
2018-05-31T23:34:51.262Z,18.60
2018-05-31T23:37:20.518Z,18.60
2018-05-31T23:39:50.604Z,18.50
2018-05-31T23:42:19.880Z,18.50
2018-05-31T23:44:49.186Z,18.50
2018-05-31T23:47:18.426Z,18.50
2018-05-31T23:49:47.740Z,18.40
2018-05-31T23:52:17.041Z,18.40
2018-05-31T23:54:47.151Z,18.30
2018-05-31T23:57:16.463Z,18.20
2018-05-31T23:59:46.584Z,18.10
